Terminal Aerodrome Forecast
Issued by NWS Sterling, VA

Home | Current Version | Previous Version | Text Only | Print | Product List | Glossary On
Versions: 1 2 3 4 5 6 7 8 9 10 11 12 13 14 15 16 17 18 19 20 21
000
FTUS41 KLWX 012300
TAFDCA
TAF
KDCA 012340Z 0200/0224 16003KT P6SM SCT050 BKN100 BKN200
     FM020400 VRB04KT P6SM SCT025 OVC035
     FM020600 05005KT P6SM SCT008 OVC015
     FM020900 05005KT P6SM -SHRA SCT008 OVC010
     FM021400 05006KT P6SM -SHRA SCT015 OVC025
     FM021700 06006KT P6SM SCT020 BKN035=

USA.gov is the U.S. government's official web portal to all federal, state and local government web resources and services.